Terminal Aerodrome Forecast
Issued by NWS

Home | Current Version | Previous Version | Text Only | Print | Product List | Glossary Off
Versions: 1 2 3 4 5 6 7 8 9 10 11 12 13 14 15 16 17 18 19 20 21 22 23 24 25 26 27 28 29 30

360
FTUS43 KDVN 230804 AAA
TAFCID
TAF AMD
KCID 230804Z 2308/2406 31006KT 5SM BR SCT005 BKN025
      TEMPO 2308/2309 OVC015
     FM230900 31005KT 3SM -DZ BR OVC004
     FM231600 31008KT P6SM BKN012
     FM232200 31006KT P6SM BKN025=

USA.gov is the U.S. government's official web portal to all federal, state and local government web resources and services.